AirNav   Everest Fuels
 
 932 users online  

WS15 Mill House Field Airport
Wyocena, Wisconsin, USA

GOING TO WYOCENA?


FAA INFORMATION EFFECTIVE 10 SEPTEMBER 2020

Location

FAA Identifier: WS15
Lat/Long: 43-29-42.6930N 089-15-55.4200W
43-29.711550N 089-15.923667W
43.4951925,-89.2653944
(estimated)
Elevation: 820 ft. / 250 m (estimated)
Variation: 01W (1995)
From city: 2 miles E of WYOCENA, WI
Time zone: UTC -5 (UTC -6 during Standard Time)
Zip code: 53960

Airport Operations

Airport use: Private use. Permission required prior to landing
Activation date: 03/1998
Control tower: no
ARTCC: CHICAGO CENTER
FSS: GREEN BAY FLIGHT SERVICE STATION
Attendance: UNATNDD
Wind indicator: yes
Segmented circle: no

Nearby radio navigation aids

VOR radial/distance  VOR name  Freq  Var
MSNr006/21.3MADISON VORTAC108.6003E
DLLr096/21.9DELLS VORTAC117.0003E
LNRr072/39.7LONE ROCK VOR/DME112.8000E

 
NDB name  Hdg/Dist  Freq  Var  ID
JUNEAU280/24.834401WUNU ..- -. ..-
ROCK RIVER310/30.537101WRYV .-. -.-- ...-

Airport Services

Runway Information

Runway 8/26

Dimensions: 2000 x 150 ft. / 610 x 46 m
Surface: turf, in good condition
RUNWAY 8  RUNWAY 26
Traffic pattern: leftleft

Airport Ownership and Management from official FAA records

Ownership: Privately-owned
Owner: BLAYDE ELERT
5308 HIGHWAY G
RIO, WI 53960
Phone 608-546-2550
Manager: BLAYDE ELERT
5308 HIGHWAY G
RIO, WI 53960
Phone 608-546-2550

Airport Operational Statistics

Aircraft based on the field: 1
Single engine airplanes: 1
    

Additional Remarks

FOR CD CTC CHICAGO ARTCC AT 630-906-8921.

Instrument Procedures

There are no published instrument procedures at WS15.

Some nearby airports with instrument procedures:

C47 - Portage Municipal Airport (10 nm NW)
KMSN - Dane County Regional Airport-Truax Field (22 nm S)
KDLL - Baraboo-Wisconsin Dells Regional Airport (22 nm W)
87Y - Blackhawk Airfield (24 nm S)
91C - Sauk-Prairie Airport (24 nm SW)
 
Loc | Ops | Rwys | IFR | FBO | Links
Com | Nav | Svcs | Stats | Notes
Area around WS15 (Mill House Field Airport)
 
Road maps at: MapQuest Bing Google
 
Aerial photo
No photo
 
Sectional chart

 
Airport distance calculator
Flying to Mill House Field Airport? Find the distance to fly.

From to WS15

Sunrise and sunset
Times for 28-Sep-2020
 Local
(UTC-5)
 Zulu
(UTC)
Morning civil twilight06:2511:25
Sunrise06:5311:53
Sunset18:4223:42
Evening civil twilight19:1000:10

Current date and time
Zulu (UTC)  28-Sep-2020 12:35:25
Local (UTC-5)  28-Sep-2020 07:35:25
 
METAR
KMSN 
22nm S 
281216Z 00000KT 10SM OVC010 11/11 A2973 RMK AO2 T01060106
KDLL 
22nm W 
281215Z AUTO 27005KT 10SM OVC015 10/09 A2973 RMK AO2 T00960092
KUNU 
25nm E 
281215Z AUTO 24004KT 10SM OVC006 10/10 A2973 RMK AO2 T01030101
KC29 
26nm SW 
281215Z AUTO 26006KT 10SM OVC010 11/10 A2975 RMK AO1 T01130100
KRYV 
31nm SE 
281215Z AUTO 24003KT 10SM OVC010 11/11 A2972 RMK AO2 T01100110
KC35 
31nm W 
281215Z AUTO 28003KT 10SM SCT010 OVC018 11/11 A2973 RMK AO2 T01060106 PWINO
KY50 
33nm N 
281214Z AUTO 24003KT 10SM SCT028 SCT032 BKN045 09/09 A2971 RMK AO2 $
KFLD 
38nm NE 
281153Z AUTO 22006KT 10SM SCT005 BKN070 11/10 A2972 RMK AO2 SLP064 70028 T01110100 10128 20111 53000
KOSH 
42nm NE 
281153Z 21005KT 10SM SCT070 11/09 A2970 RMK AO2 SLP057 70012 T01060094 10122 20106 55002
K82C 
43nm NW 
281215Z AUTO 30007KT 10SM OVC014 12/10 A2973 RMK AO2 T01180102
TAF
KMSN 
22nm S 
280520Z 2806/2906 23006KT P6SM FEW010 OVC120 FM281100 29005KT P6SM OVC020 FM281400 32007KT P6SM BKN013 FM281700 32010KT P6SM VCSH BKN026 FM290000 31010KT P6SM BKN050 AMD NOT SKED 2806/2809
NOTAMs
Click for the latest NOTAMs
NOTAMs are issued by the DoD/FAA and will open in a separate window not controlled by AirNav.

 

 
 

Would you like to see your business listed on this page?

 If your business provides an interesting product or service to pilots, flight crews, aircraft, or users of the Mill House Field Airport, you should consider listing it here.  To start the listing process, click on the button below
 
Add a business
 

Other Pages about Mill House Field Airport

Update a link
 
Copyright © AirNav, LLC. All rights reserved. Privacy Policy  Contact